Wednesday, November 22, 2017, 11:40 AM EST
Back to Local

KCXY, Harrisburg Capital City

Location: New Cumberland, PA, United States Lat: 40.217
Local Time: 11:40 AM EST (16:40 GMT) Lon: -76.85
Time Zone: US/Eastern Elev: 347 ft

Show me the last for .
Show Decoded

2017-11-22 10:56 METAR KCXY 221556Z 31018G24KT 10SM FEW044 11/M02 A3001 RMK AO2 PK WND 30029/1508
                 SLP165 T01061017 =
2017-11-22 09:56 METAR KCXY 221456Z 29016G24KT 10SM CLR 11/00 A2998 RMK AO2 SLP155 T01110000
                 53014 =
2017-11-22 08:56 METAR KCXY 221356Z 31007G19KT 270V350 10SM CLR 10/02 A2997 RMK AO2 SLP152
                 T01000017 =
2017-11-22 07:56 METAR KCXY 221256Z 30004KT 10SM OVC110 07/03 A2995 RMK AO2 SLP146 T00670028 =
2017-11-22 06:56 METAR KCXY 221156Z 00000KT 10SM OVC080 07/02 A2994 RMK AO2 SLP142 T00670022
                 10067 20028 53011 =
2017-11-22 05:56 METAR KCXY 221056Z AUTO 00000KT 10SM SCT065 BKN080 OVC110 05/02 A2992 RMK AO2
                 SLP132 T00500022 =
2017-11-22 04:56 METAR KCXY 220956Z AUTO 00000KT 10SM BKN080 OVC110 04/02 A2990 RMK AO2 SLP129
                 T00440017 =
2017-11-22 03:56 METAR KCXY 220856Z AUTO 00000KT 10SM BKN095 04/01 A2991 RMK AO2 SLP131 T00390011
                 58013 =
2017-11-22 02:56 METAR KCXY 220756Z AUTO 00000KT 10SM BKN075 OVC100 05/01 A2993 RMK AO2 SLP138
                 T00500011 =
2017-11-22 01:56 METAR KCXY 220656Z AUTO 00000KT 10SM OVC090 03/00 A2994 RMK AO2 SLP141 T00330000
                 =
2017-11-22 00:56 METAR KCXY 220556Z AUTO 00000KT 10SM CLR 03/M01 A2995 RMK AO2 SLP143 T00331006
                 10089 20028 56017 =
2017-11-21 23:56 METAR KCXY 220456Z AUTO 00000KT 10SM FEW080 04/00 A2996 RMK AO2 SLP149 T00440000
                 401391022 =
2017-11-21 22:56 METAR KCXY 220356Z AUTO 00000KT 10SM CLR 06/01 A2998 RMK AO2 SLP154 T00560006 =
2017-11-21 21:56 METAR KCXY 220256Z AUTO 32003KT 10SM CLR 06/01 A3000 RMK AO2 SLP161 T00560006
                 56002 =
2017-11-21 20:56 METAR KCXY 220156Z 00000KT 10SM CLR 05/M01 A3000 RMK AO2 SLP162 T00501006 =
2017-11-21 19:56 METAR KCXY 220056Z 00000KT 10SM CLR 06/M01 A2999 RMK AO2 SLP160 T00561006 =
2017-11-21 18:56 METAR KCXY 212356Z 36003KT 10SM CLR 09/M01 A3000 RMK AO2 SLP164 T00891006 10139
                 20089 53005 =
2017-11-21 17:56 METAR KCXY 212256Z 19006KT 10SM CLR 11/M02 A2999 RMK AO2 SLP157 T01111022 =
2017-11-21 16:56 METAR KCXY 212156Z 21004KT 10SM CLR 11/M03 A2999 RMK AO2 SLP157 T01111028 =
2017-11-21 15:56 METAR KCXY 212056Z 19008KT 10SM CLR 13/M03 A2999 RMK AO2 SLP158 T01281028 56008
                 =
2017-11-21 14:56 METAR KCXY 211956Z 19007KT 10SM CLR 13/M03 A2999 RMK AO2 SLP158 T01281028 =
2017-11-21 13:56 METAR KCXY 211856Z 21009KT 10SM CLR 13/M04 A3000 RMK AO2 SLP162 T01331039 =
2017-11-21 12:56 METAR KCXY 211756Z 18007KT 10SM CLR 13/M03 A3001 RMK AO2 SLP166 T01331033 10133
                 21022 58029 =
2017-11-21 11:56 METAR KCXY 211656Z 00000KT 10SM CLR 11/M04 A3004 RMK AO2 SLP175 T01111039 =

Support USWX by starting your Amazon purchase here.